Station Historical Data
Daily Summary for March 16, 2017 Units:  Both    English   Metric
« Previous Day
Next Day »
Daily Weekly Monthly Yearly Custom
  High: Low: Average:
Temperature: 34.4 °F /  1.3 °C 18.4 °F /  -7.6 °C 25.7 °F /  -3.5 °C
Dew Point: 17.9 °F /  -7.8 °C 11.5 °F /  -11.4 °C 14.7 °F /  -9.6 °C
Humidity: 77% 48% 64%
Wind Speed: 15.0mph /  24.1km/h - 6.3mph /  10.1km/h
Wind Gust: 22.0mph /  35.4km/h - -
Wind- - West
Pressure: 30.24 in /  1023.9 hPa 30.02 in /  1016.5 hPa -
Precipitation: 0.00 in /  0 mm    
Historical Graphs
 
 
Tabular Data for March 16, 2017
Time Temperature Dew Point Pressure Wind Wind Speed Wind Gust Humidity Rainfall Rate (Hourly)
00:04 20.2 °F /  -6.6 °C 12.3 °F /  -10.9 °C 30.03in /  1016.8hPa WNW 6.0mph /  9.7km/h 12.0mph /  19.3km/h 71% 0.00in /  0mm
00:09 20.0 °F /  -6.7 °C 12.1 °F /  -11.1 °C 30.03in /  1016.8hPa WNW 6.0mph /  9.7km/h 13.0mph /  20.9km/h 71% 0.00in /  0mm
00:14 19.7 °F /  -6.8 °C 11.8 °F /  -11.2 °C 30.03in /  1016.8hPa West 6.0mph /  9.7km/h 13.0mph /  20.9km/h 71% 0.00in /  0mm
00:19 19.5 °F /  -6.9 °C 11.9 °F /  -11.2 °C 30.03in /  1016.8hPa West 10.0mph /  16.1km/h 12.0mph /  19.3km/h 72% 0.00in /  0mm
00:24 19.4 °F /  -7 °C 11.8 °F /  -11.2 °C 30.02in /  1016.5hPa WNW 6.0mph /  9.7km/h 10.0mph /  16.1km/h 72% 0.00in /  0mm
00:29 19.2 °F /  -7.1 °C 12.0 °F /  -11.1 °C 30.03in /  1016.8hPa West 5.0mph /  8km/h 10.0mph /  16.1km/h 73% 0.00in /  0mm
00:34 18.9 °F /  -7.3 °C 11.7 °F /  -11.3 °C 30.02in /  1016.5hPa West 5.0mph /  8km/h 12.0mph /  19.3km/h 73% 0.00in /  0mm
00:39 18.9 °F /  -7.3 °C 11.7 °F /  -11.3 °C 30.02in /  1016.5hPa West 5.0mph /  8km/h 12.0mph /  19.3km/h 73% 0.00in /  0mm
00:44 18.8 °F /  -7.3 °C 11.6 °F /  -11.3 °C 30.03in /  1016.8hPa West 3.0mph /  4.8km/h 10.0mph /  16.1km/h 73% 0.00in /  0mm
00:49 18.7 °F /  -7.4 °C 11.5 °F /  -11.4 °C 30.03in /  1016.8hPa West 5.0mph /  8km/h 9.0mph /  14.5km/h 73% 0.00in /  0mm
00:54 18.5 °F /  -7.5 °C 11.6 °F /  -11.3 °C 30.03in /  1016.8hPa NW 6.0mph /  9.7km/h 9.0mph /  14.5km/h 74% 0.00in /  0mm
00:59 18.5 °F /  -7.5 °C 11.6 °F /  -11.3 °C 30.03in /  1016.8hPa WNW 5.0mph /  8km/h 7.0mph /  11.3km/h 74% 0.00in /  0mm
01:04 18.5 °F /  -7.5 °C 11.6 °F /  -11.3 °C 30.03in /  1016.8hPa West 5.0mph /  8km/h 10.0mph /  16.1km/h 74% 0.00in /  0mm
01:09 18.6 °F /  -7.4 °C 11.7 °F /  -11.3 °C 30.03in /  1016.8hPa West 4.0mph /  6.4km/h 10.0mph /  16.1km/h 74% 0.00in /  0mm
01:14 18.5 °F /  -7.5 °C 11.6 °F /  -11.3 °C 30.03in /  1016.8hPa West 4.0mph /  6.4km/h 8.0mph /  12.9km/h 74% 0.00in /  0mm
01:19 18.4 °F /  -7.6 °C 11.5 °F /  -11.4 °C 30.03in /  1016.8hPa WNW 3.0mph /  4.8km/h 9.0mph /  14.5km/h 74% 0.00in /  0mm
01:24 18.5 °F /  -7.5 °C 11.6 °F /  -11.3 °C 30.03in /  1016.8hPa WNW 5.0mph /  8km/h 9.0mph /  14.5km/h 74% 0.00in /  0mm
01:29 18.7 °F /  -7.4 °C 11.8 °F /  -11.2 °C 30.03in /  1016.8hPa WSW 3.0mph /  4.8km/h 10.0mph /  16.1km/h 74% 0.00in /  0mm
01:34 18.7 °F /  -7.4 °C 11.8 °F /  -11.2 °C 30.03in /  1016.8hPa West 4.0mph /  6.4km/h 8.0mph /  12.9km/h 74% 0.00in /  0mm
01:39 18.5 °F /  -7.5 °C 11.6 °F /  -11.3 °C 30.03in /  1016.8hPa West 4.0mph /  6.4km/h 8.0mph /  12.9km/h 74% 0.00in /  0mm
01:44 18.5 °F /  -7.5 °C 11.9 °F /  -11.2 °C 30.03in /  1016.8hPa West 4.0mph /  6.4km/h 8.0mph /  12.9km/h 75% 0.00in /  0mm
01:49 18.5 °F /  -7.5 °C 11.9 °F /  -11.2 °C 30.03in /  1016.8hPa West 3.0mph /  4.8km/h 10.0mph /  16.1km/h 75% 0.00in /  0mm
01:54 18.5 °F /  -7.5 °C 11.9 °F /  -11.2 °C 30.03in /  1016.8hPa West 4.0mph /  6.4km/h 10.0mph /  16.1km/h 75% 0.00in /  0mm
01:59 18.8 °F /  -7.3 °C 12.2 °F /  -11 °C 30.03in /  1016.8hPa WNW 6.0mph /  9.7km/h 11.0mph /  17.7km/h 75% 0.00in /  0mm
02:04 18.7 °F /  -7.4 °C 11.8 °F /  -11.2 °C 30.03in /  1016.8hPa West 5.0mph /  8km/h 10.0mph /  16.1km/h 74% 0.00in /  0mm
02:09 18.7 °F /  -7.4 °C 12.1 °F /  -11.1 °C 30.03in /  1016.8hPa West 5.0mph /  8km/h 10.0mph /  16.1km/h 75% 0.00in /  0mm
02:14 18.8 °F /  -7.3 °C 11.9 °F /  -11.2 °C 30.04in /  1017.2hPa West 5.0mph /  8km/h 10.0mph /  16.1km/h 74% 0.00in /  0mm
02:19 18.8 °F /  -7.3 °C 11.9 °F /  -11.2 °C 30.04in /  1017.2hPa West 3.0mph /  4.8km/h 9.0mph /  14.5km/h 74% 0.00in /  0mm
02:24 18.7 °F /  -7.4 °C 12.1 °F /  -11.1 °C 30.04in /  1017.2hPa West 6.0mph /  9.7km/h 10.0mph /  16.1km/h 75% 0.00in /  0mm
02:29 18.8 °F /  -7.3 °C 12.2 °F /  -11 °C 30.04in /  1017.2hPa West 5.0mph /  8km/h 9.0mph /  14.5km/h 75% 0.00in /  0mm
02:34 18.7 °F /  -7.4 °C 12.1 °F /  -11.1 °C 30.04in /  1017.2hPa WNW 10.0mph /  16.1km/h 10.0mph /  16.1km/h 75% 0.00in /  0mm
02:39 18.7 °F /  -7.4 °C 12.1 °F /  -11.1 °C 30.04in /  1017.2hPa West 2.0mph /  3.2km/h 10.0mph /  16.1km/h 75% 0.00in /  0mm
02:44 18.6 °F /  -7.4 °C 12.0 °F /  -11.1 °C 30.04in /  1017.2hPa West 4.0mph /  6.4km/h 10.0mph /  16.1km/h 75% 0.00in /  0mm
02:49 18.6 °F /  -7.4 °C 12.3 °F /  -10.9 °C 30.04in /  1017.2hPa West 4.0mph /  6.4km/h 11.0mph /  17.7km/h 76% 0.00in /  0mm
02:54 18.6 °F /  -7.4 °C 12.3 °F /  -10.9 °C 30.04in /  1017.2hPa West 5.0mph /  8km/h 11.0mph /  17.7km/h 76% 0.00in /  0mm
02:59 18.6 °F /  -7.4 °C 12.3 °F /  -10.9 °C 30.04in /  1017.2hPa West 5.0mph /  8km/h 10.0mph /  16.1km/h 76% 0.00in /  0mm
03:04 18.6 °F /  -7.4 °C 12.3 °F /  -10.9 °C 30.04in /  1017.2hPa WSW 4.0mph /  6.4km/h 10.0mph /  16.1km/h 76% 0.00in /  0mm
03:09 18.7 °F /  -7.4 °C 12.4 °F /  -10.9 °C 30.04in /  1017.2hPa West 6.0mph /  9.7km/h 9.0mph /  14.5km/h 76% 0.00in /  0mm
03:14 18.8 °F /  -7.3 °C 12.8 °F /  -10.7 °C 30.04in /  1017.2hPa West 5.0mph /  8km/h 10.0mph /  16.1km/h 77% 0.00in /  0mm
03:19 18.7 °F /  -7.4 °C 12.4 °F /  -10.9 °C 30.04in /  1017.2hPa West 5.0mph /  8km/h 10.0mph /  16.1km/h 76% 0.00in /  0mm
03:24 18.8 °F /  -7.3 °C 12.8 °F /  -10.7 °C 30.04in /  1017.2hPa West 5.0mph /  8km/h 10.0mph /  16.1km/h 77% 0.00in /  0mm
03:29 18.8 °F /  -7.3 °C 12.8 °F /  -10.7 °C 30.04in /  1017.2hPa WNW 6.0mph /  9.7km/h 11.0mph /  17.7km/h 77% 0.00in /  0mm
03:34 18.8 °F /  -7.3 °C 12.8 °F /  -10.7 °C 30.04in /  1017.2hPa West 4.0mph /  6.4km/h 10.0mph /  16.1km/h 77% 0.00in /  0mm
03:39 18.8 °F /  -7.3 °C 12.8 °F /  -10.7 °C 30.04in /  1017.2hPa West 7.0mph /  11.3km/h 7.0mph /  11.3km/h 77% 0.00in /  0mm
03:44 19.0 °F /  -7.2 °C 13.0 °F /  -10.6 °C 30.04in /  1017.2hPa WNW 5.0mph /  8km/h 8.0mph /  12.9km/h 77% 0.00in /  0mm
03:49 19.0 °F /  -7.2 °C 13.0 °F /  -10.6 °C 30.05in /  1017.5hPa West 4.0mph /  6.4km/h 9.0mph /  14.5km/h 77% 0.00in /  0mm
03:54 18.9 °F /  -7.3 °C 12.9 °F /  -10.6 °C 30.05in /  1017.5hPa West 4.0mph /  6.4km/h 9.0mph /  14.5km/h 77% 0.00in /  0mm
03:59 19.2 °F /  -7.1 °C 13.2 °F /  -10.4 °C 30.05in /  1017.5hPa West 4.0mph /  6.4km/h 10.0mph /  16.1km/h 77% 0.00in /  0mm
04:04 19.4 °F /  -7 °C 13.4 °F /  -10.3 °C 30.05in /  1017.5hPa WNW 6.0mph /  9.7km/h 8.0mph /  12.9km/h 77% 0.00in /  0mm
04:09 19.6 °F /  -6.9 °C 13.6 °F /  -10.2 °C 30.05in /  1017.5hPa WNW 3.0mph /  4.8km/h 11.0mph /  17.7km/h 77% 0.00in /  0mm
04:14 19.7 °F /  -6.8 °C 13.7 °F /  -10.2 °C 30.05in /  1017.5hPa WNW 5.0mph /  8km/h 11.0mph /  17.7km/h 77% 0.00in /  0mm
04:19 19.6 °F /  -6.9 °C 13.3 °F /  -10.4 °C 30.05in /  1017.5hPa West 5.0mph /  8km/h 11.0mph /  17.7km/h 76% 0.00in /  0mm
04:24 19.4 °F /  -7 °C 13.1 °F /  -10.5 °C 30.05in /  1017.5hPa West 4.0mph /  6.4km/h 9.0mph /  14.5km/h 76% 0.00in /  0mm
04:29 19.4 °F /  -7 °C 13.4 °F /  -10.3 °C 30.05in /  1017.5hPa WSW 3.0mph /  4.8km/h 8.0mph /  12.9km/h 77% 0.00in /  0mm
04:34 19.3 °F /  -7.1 °C 13.3 °F /  -10.4 °C 30.05in /  1017.5hPa WSW 6.0mph /  9.7km/h 7.0mph /  11.3km/h 77% 0.00in /  0mm
04:39 19.2 °F /  -7.1 °C 13.2 °F /  -10.4 °C 30.05in /  1017.5hPa NNW 4.0mph /  6.4km/h 8.0mph /  12.9km/h 77% 0.00in /  0mm
04:44 19.2 °F /  -7.1 °C 13.2 °F /  -10.4 °C 30.05in /  1017.5hPa WNW 6.0mph /  9.7km/h 10.0mph /  16.1km/h 77% 0.00in /  0mm
04:49 19.2 °F /  -7.1 °C 13.2 °F /  -10.4 °C 30.05in /  1017.5hPa West 6.0mph /  9.7km/h 11.0mph /  17.7km/h 77% 0.00in /  0mm
04:54 19.3 °F /  -7.1 °C 13.3 °F /  -10.4 °C 30.06in /  1017.8hPa West 6.0mph /  9.7km/h 11.0mph /  17.7km/h 77% 0.00in /  0mm
04:59 19.3 °F /  -7.1 °C 13.3 °F /  -10.4 °C 30.06in /  1017.8hPa WNW 4.0mph /  6.4km/h 11.0mph /  17.7km/h 77% 0.00in /  0mm
05:04 19.3 °F /  -7.1 °C 13.3 °F /  -10.4 °C 30.06in /  1017.8hPa SSW 7.0mph /  11.3km/h 11.0mph /  17.7km/h 77% 0.00in /  0mm
05:09 19.4 °F /  -7 °C 13.4 °F /  -10.3 °C 30.06in /  1017.8hPa West 6.0mph /  9.7km/h 13.0mph /  20.9km/h 77% 0.00in /  0mm
05:14 19.3 °F /  -7.1 °C 13.0 °F /  -10.6 °C 30.06in /  1017.8hPa WSW 4.0mph /  6.4km/h 10.0mph /  16.1km/h 76% 0.00in /  0mm
05:19 19.3 °F /  -7.1 °C 13.0 °F /  -10.6 °C 30.06in /  1017.8hPa West 5.0mph /  8km/h 10.0mph /  16.1km/h 76% 0.00in /  0mm
05:24 19.2 °F /  -7.1 °C 12.9 °F /  -10.6 °C 30.06in /  1017.8hPa West 4.0mph /  6.4km/h 11.0mph /  17.7km/h 76% 0.00in /  0mm
05:29 19.1 °F /  -7.2 °C 12.8 °F /  -10.7 °C 30.06in /  1017.8hPa West 4.0mph /  6.4km/h 11.0mph /  17.7km/h 76% 0.00in /  0mm
05:34 19.0 °F /  -7.2 °C 12.7 °F /  -10.7 °C 30.06in /  1017.8hPa West 4.0mph /  6.4km/h 9.0mph /  14.5km/h 76% 0.00in /  0mm
05:39 19.0 °F /  -7.2 °C 12.7 °F /  -10.7 °C 30.07in /  1018.2hPa West 4.0mph /  6.4km/h 11.0mph /  17.7km/h 76% 0.00in /  0mm
05:44 19.0 °F /  -7.2 °C 13.0 °F /  -10.6 °C 30.07in /  1018.2hPa West 4.0mph /  6.4km/h 8.0mph /  12.9km/h 77% 0.00in /  0mm
05:49 19.0 °F /  -7.2 °C 12.7 °F /  -10.7 °C 30.07in /  1018.2hPa West 5.0mph /  8km/h 10.0mph /  16.1km/h 76% 0.00in /  0mm
05:54 19.0 °F /  -7.2 °C 12.7 °F /  -10.7 °C 30.07in /  1018.2hPa WNW 5.0mph /  8km/h 10.0mph /  16.1km/h 76% 0.00in /  0mm
05:59 19.1 °F /  -7.2 °C 12.8 °F /  -10.7 °C 30.07in /  1018.2hPa SW 6.0mph /  9.7km/h 9.0mph /  14.5km/h 76% 0.00in /  0mm
06:04 19.0 °F /  -7.2 °C 12.7 °F /  -10.7 °C 30.07in /  1018.2hPa West 4.0mph /  6.4km/h 11.0mph /  17.7km/h 76% 0.00in /  0mm
06:09 19.0 °F /  -7.2 °C 12.7 °F /  -10.7 °C 30.08in /  1018.5hPa WSW 6.0mph /  9.7km/h 9.0mph /  14.5km/h 76% 0.00in /  0mm
06:14 19.0 °F /  -7.2 °C 12.7 °F /  -10.7 °C 30.08in /  1018.5hPa West 4.0mph /  6.4km/h 8.0mph /  12.9km/h 76% 0.00in /  0mm
06:19 19.0 °F /  -7.2 °C 12.7 °F /  -10.7 °C 30.08in /  1018.5hPa West 4.0mph /  6.4km/h 11.0mph /  17.7km/h 76% 0.00in /  0mm
06:24 18.9 °F /  -7.3 °C 12.6 °F /  -10.8 °C 30.08in /  1018.5hPa West 5.0mph /  8km/h 11.0mph /  17.7km/h 76% 0.00in /  0mm
06:29 18.8 °F /  -7.3 °C 12.5 °F /  -10.8 °C 30.08in /  1018.5hPa West 4.0mph /  6.4km/h 9.0mph /  14.5km/h 76% 0.00in /  0mm
06:34 18.9 °F /  -7.3 °C 12.9 °F /  -10.6 °C 30.08in /  1018.5hPa West 5.0mph /  8km/h 9.0mph /  14.5km/h 77% 0.00in /  0mm
06:39 19.0 °F /  -7.2 °C 12.7 °F /  -10.7 °C 30.08in /  1018.5hPa West 5.0mph /  8km/h 11.0mph /  17.7km/h 76% 0.00in /  0mm
06:44 19.0 °F /  -7.2 °C 12.7 °F /  -10.7 °C 30.08in /  1018.5hPa West 5.0mph /  8km/h 11.0mph /  17.7km/h 76% 0.00in /  0mm
06:49 19.0 °F /  -7.2 °C 12.7 °F /  -10.7 °C 30.08in /  1018.5hPa West 4.0mph /  6.4km/h 9.0mph /  14.5km/h 76% 0.00in /  0mm
06:54 18.9 °F /  -7.3 °C 12.6 °F /  -10.8 °C 30.09in /  1018.8hPa WNW 5.0mph /  8km/h 10.0mph /  16.1km/h 76% 0.00in /  0mm
06:59 18.8 °F /  -7.3 °C 12.8 °F /  -10.7 °C 30.09in /  1018.8hPa West 5.0mph /  8km/h 11.0mph /  17.7km/h 77% 0.00in /  0mm
07:04 19.0 °F /  -7.2 °C 13.0 °F /  -10.6 °C 30.09in /  1018.8hPa West 5.0mph /  8km/h 12.0mph /  19.3km/h 77% 0.00in /  0mm
07:09 19.0 °F /  -7.2 °C 12.7 °F /  -10.7 °C 30.09in /  1018.8hPa West 5.0mph /  8km/h 9.0mph /  14.5km/h 76% 0.00in /  0mm
07:14 18.9 °F /  -7.3 °C 12.6 °F /  -10.8 °C 30.09in /  1018.8hPa WSW 8.0mph /  12.9km/h 11.0mph /  17.7km/h 76% 0.00in /  0mm
07:19 19.1 °F /  -7.2 °C 12.8 °F /  -10.7 °C 30.10in /  1019.2hPa WNW 5.0mph /  8km/h 8.0mph /  12.9km/h 76% 0.00in /  0mm
07:24 19.0 °F /  -7.2 °C 12.4 °F /  -10.9 °C 30.10in /  1019.2hPa West 8.0mph /  12.9km/h 9.0mph /  14.5km/h 75% 0.00in /  0mm
07:29 19.1 °F /  -7.2 °C 12.5 °F /  -10.8 °C 30.10in /  1019.2hPa West 5.0mph /  8km/h 9.0mph /  14.5km/h 75% 0.00in /  0mm
07:34 19.2 °F /  -7.1 °C 12.3 °F /  -10.9 °C 30.10in /  1019.2hPa West 5.0mph /  8km/h 10.0mph /  16.1km/h 74% 0.00in /  0mm
07:39 19.1 °F /  -7.2 °C 12.5 °F /  -10.8 °C 30.10in /  1019.2hPa WSW 5.0mph /  8km/h 9.0mph /  14.5km/h 75% 0.00in /  0mm
07:44 19.3 °F /  -7.1 °C 12.4 °F /  -10.9 °C 30.10in /  1019.2hPa West 4.0mph /  6.4km/h 11.0mph /  17.7km/h 74% 0.00in /  0mm
07:49 19.4 °F /  -7 °C 12.5 °F /  -10.8 °C 30.10in /  1019.2hPa WNW 9.0mph /  14.5km/h 11.0mph /  17.7km/h 74% 0.00in /  0mm
07:54 19.6 °F /  -6.9 °C 12.3 °F /  -10.9 °C 30.10in /  1019.2hPa West 4.0mph /  6.4km/h 12.0mph /  19.3km/h 73% 0.00in /  0mm
07:59 19.8 °F /  -6.8 °C 12.5 °F /  -10.8 °C 30.11in /  1019.5hPa NW 5.0mph /  8km/h 10.0mph /  16.1km/h 73% 0.00in /  0mm
08:04 20.0 °F /  -6.7 °C 12.4 °F /  -10.9 °C 30.11in /  1019.5hPa West 5.0mph /  8km/h 10.0mph /  16.1km/h 72% 0.00in /  0mm
08:09 19.9 °F /  -6.7 °C 12.3 °F /  -10.9 °C 30.11in /  1019.5hPa West 5.0mph /  8km/h 10.0mph /  16.1km/h 72% 0.00in /  0mm
08:14 20.0 °F /  -6.7 °C 12.4 °F /  -10.9 °C 30.12in /  1019.9hPa West 5.0mph /  8km/h 12.0mph /  19.3km/h 72% 0.00in /  0mm
08:19 20.1 °F /  -6.6 °C 12.5 °F /  -10.8 °C 30.12in /  1019.9hPa West 6.0mph /  9.7km/h 13.0mph /  20.9km/h 72% 0.00in /  0mm
08:24 20.2 °F /  -6.6 °C 12.6 °F /  -10.8 °C 30.12in /  1019.9hPa West 5.0mph /  8km/h 13.0mph /  20.9km/h 72% 0.00in /  0mm
08:29 20.6 °F /  -6.3 °C 12.7 °F /  -10.7 °C 30.12in /  1019.9hPa West 3.0mph /  4.8km/h 15.0mph /  24.1km/h 71% 0.00in /  0mm
08:34 20.8 °F /  -6.2 °C 12.6 °F /  -10.8 °C 30.12in /  1019.9hPa West 6.0mph /  9.7km/h 15.0mph /  24.1km/h 70% 0.00in /  0mm
08:39 21.1 °F /  -6.1 °C 12.8 °F /  -10.7 °C 30.12in /  1019.9hPa WNW 8.0mph /  12.9km/h 12.0mph /  19.3km/h 70% 0.00in /  0mm
08:44 21.1 °F /  -6.1 °C 12.5 °F /  -10.8 °C 30.12in /  1019.9hPa WNW 9.0mph /  14.5km/h 12.0mph /  19.3km/h 69% 0.00in /  0mm
08:49 21.5 °F /  -5.8 °C 12.9 °F /  -10.6 °C 30.12in /  1019.9hPa West 6.0mph /  9.7km/h 14.0mph /  22.5km/h 69% 0.00in /  0mm
08:54 21.8 °F /  -5.7 °C 12.9 °F /  -10.6 °C 30.12in /  1019.9hPa West 2.0mph /  3.2km/h 14.0mph /  22.5km/h 68% 0.00in /  0mm
08:59 22.1 °F /  -5.5 °C 13.1 °F /  -10.5 °C 30.12in /  1019.9hPa West 3.0mph /  4.8km/h 12.0mph /  19.3km/h 68% 0.00in /  0mm
09:04 22.4 °F /  -5.3 °C 13.1 °F /  -10.5 °C 30.13in /  1020.2hPa West 8.0mph /  12.9km/h 13.0mph /  20.9km/h 67% 0.00in /  0mm
09:09 22.7 °F /  -5.2 °C 13.4 °F /  -10.3 °C 30.13in /  1020.2hPa West 6.0mph /  9.7km/h 13.0mph /  20.9km/h 67% 0.00in /  0mm
09:14 22.9 °F /  -5.1 °C 13.2 °F /  -10.4 °C 30.13in /  1020.2hPa West 7.0mph /  11.3km/h 13.0mph /  20.9km/h 66% 0.00in /  0mm
09:19 23.1 °F /  -4.9 °C 13.4 °F /  -10.3 °C 30.13in /  1020.2hPa West 7.0mph /  11.3km/h 15.0mph /  24.1km/h 66% 0.00in /  0mm
09:24 23.3 °F /  -4.8 °C 13.6 °F /  -10.2 °C 30.13in /  1020.2hPa West 6.0mph /  9.7km/h 15.0mph /  24.1km/h 66% 0.00in /  0mm
09:29 23.4 °F /  -4.8 °C 13.7 °F /  -10.2 °C 30.13in /  1020.2hPa West 7.0mph /  11.3km/h 14.0mph /  22.5km/h 66% 0.00in /  0mm
09:34 23.5 °F /  -4.7 °C 13.8 °F /  -10.1 °C 30.13in /  1020.2hPa West 6.0mph /  9.7km/h 16.0mph /  25.7km/h 66% 0.00in /  0mm
09:39 23.8 °F /  -4.6 °C 13.7 °F /  -10.2 °C 30.13in /  1020.2hPa West 7.0mph /  11.3km/h 16.0mph /  25.7km/h 65% 0.00in /  0mm
09:44 23.9 °F /  -4.5 °C 13.5 °F /  -10.3 °C 30.13in /  1020.2hPa WNW 5.0mph /  8km/h 12.0mph /  19.3km/h 64% 0.00in /  0mm
09:49 24.2 °F /  -4.3 °C 14.1 °F /  -9.9 °C 30.13in /  1020.2hPa SW 6.0mph /  9.7km/h 13.0mph /  20.9km/h 65% 0.00in /  0mm
09:54 24.3 °F /  -4.3 °C 13.9 °F /  -10.1 °C 30.13in /  1020.2hPa NNW 8.0mph /  12.9km/h 13.0mph /  20.9km/h 64% 0.00in /  0mm
09:59 24.5 °F /  -4.2 °C 14.1 °F /  -9.9 °C 30.13in /  1020.2hPa WSW 5.0mph /  8km/h 15.0mph /  24.1km/h 64% 0.00in /  0mm
10:04 24.8 °F /  -4 °C 14.0 °F /  -10 °C 30.13in /  1020.2hPa WSW 7.0mph /  11.3km/h 15.0mph /  24.1km/h 63% 0.00in /  0mm
10:09 25.3 °F /  -3.7 °C 14.5 °F /  -9.7 °C 30.13in /  1020.2hPa West 9.0mph /  14.5km/h 15.0mph /  24.1km/h 63% 0.00in /  0mm
10:14 25.4 °F /  -3.7 °C 14.5 °F /  -9.7 °C 30.14in /  1020.5hPa West 7.0mph /  11.3km/h 15.0mph /  24.1km/h 63% 0.00in /  0mm
10:19 25.5 °F /  -3.6 °C 14.3 °F /  -9.8 °C 30.14in /  1020.5hPa West 7.0mph /  11.3km/h 17.0mph /  27.4km/h 62% 0.00in /  0mm
10:24 25.6 °F /  -3.6 °C 14.4 °F /  -9.8 °C 30.13in /  1020.2hPa West 8.0mph /  12.9km/h 17.0mph /  27.4km/h 62% 0.00in /  0mm
10:29 25.9 °F /  -3.4 °C 14.7 °F /  -9.6 °C 30.14in /  1020.5hPa WNW 8.0mph /  12.9km/h 16.0mph /  25.7km/h 62% 0.00in /  0mm
10:34 26.1 °F /  -3.3 °C 15.2 °F /  -9.3 °C 30.14in /  1020.5hPa West 7.0mph /  11.3km/h 16.0mph /  25.7km/h 63% 0.00in /  0mm
10:39 26.5 °F /  -3.1 °C 15.2 °F /  -9.3 °C 30.14in /  1020.5hPa NW 7.0mph /  11.3km/h 14.0mph /  22.5km/h 62% 0.00in /  0mm
10:44 26.3 °F /  -3.2 °C 14.7 °F /  -9.6 °C 30.14in /  1020.5hPa WNW 8.0mph /  12.9km/h 15.0mph /  24.1km/h 61% 0.00in /  0mm
10:49 26.4 °F /  -3.1 °C 15.1 °F /  -9.4 °C 30.14in /  1020.5hPa West 7.0mph /  11.3km/h 12.0mph /  19.3km/h 62% 0.01in /  0.25mm
10:54 26.6 °F /  -3 °C 15.3 °F /  -9.3 °C 30.14in /  1020.5hPa West 6.0mph /  9.7km/h 15.0mph /  24.1km/h 62% 0.01in /  0.25mm
10:59 26.8 °F /  -2.9 °C 15.5 °F /  -9.2 °C 30.14in /  1020.5hPa West 5.0mph /  8km/h 12.0mph /  19.3km/h 62% 0.01in /  0.25mm
11:04 27.4 °F /  -2.6 °C 15.7 °F /  -9.1 °C 30.14in /  1020.5hPa NNW 6.0mph /  9.7km/h 11.0mph /  17.7km/h 61% 0.01in /  0.25mm
11:09 27.3 °F /  -2.6 °C 15.2 °F /  -9.3 °C 30.14in /  1020.5hPa West 9.0mph /  14.5km/h 12.0mph /  19.3km/h 60% 0.01in /  0.25mm
11:14 26.8 °F /  -2.9 °C 15.1 °F /  -9.4 °C 30.14in /  1020.5hPa West 9.0mph /  14.5km/h 14.0mph /  22.5km/h 61% 0.01in /  0.25mm
11:19 27.0 °F /  -2.8 °C 15.3 °F /  -9.3 °C 30.14in /  1020.5hPa West 9.0mph /  14.5km/h 16.0mph /  25.7km/h 61% 0.01in /  0.25mm
11:24 27.2 °F /  -2.7 °C 15.9 °F /  -8.9 °C 30.15in /  1020.9hPa WNW 8.0mph /  12.9km/h 16.0mph /  25.7km/h 62% 0.02in /  0.51mm
11:29 27.3 °F /  -2.6 °C 15.2 °F /  -9.3 °C 30.15in /  1020.9hPa West 7.0mph /  11.3km/h 17.0mph /  27.4km/h 60% 0.02in /  0.51mm
11:34 27.1 °F /  -2.7 °C 15.0 °F /  -9.4 °C 30.15in /  1020.9hPa West 7.0mph /  11.3km/h 17.0mph /  27.4km/h 60% 0.02in /  0.51mm
11:39 27.6 °F /  -2.4 °C 16.3 °F /  -8.7 °C 30.15in /  1020.9hPa West 7.0mph /  11.3km/h 14.0mph /  22.5km/h 62% 0.02in /  0.51mm
11:44 27.6 °F /  -2.4 °C 15.1 °F /  -9.4 °C 30.15in /  1020.9hPa West 8.0mph /  12.9km/h 17.0mph /  27.4km/h 59% 0.02in /  0.51mm
11:49 27.6 °F /  -2.4 °C 15.5 °F /  -9.2 °C 30.15in /  1020.9hPa West 9.0mph /  14.5km/h 17.0mph /  27.4km/h 60% 0.01in /  0.25mm
11:54 27.7 °F /  -2.4 °C 15.2 °F /  -9.3 °C 30.15in /  1020.9hPa West 13.0mph /  20.9km/h 15.0mph /  24.1km/h 59% 0.01in /  0.25mm
11:59 27.7 °F /  -2.4 °C 14.8 °F /  -9.6 °C 30.15in /  1020.9hPa WNW 7.0mph /  11.3km/h 17.0mph /  27.4km/h 58% 0.02in /  0.51mm
12:04 27.9 °F /  -2.3 °C 14.6 °F /  -9.7 °C 30.15in /  1020.9hPa West 3.0mph /  4.8km/h 19.0mph /  30.6km/h 57% 0.02in /  0.51mm
12:09 28.3 °F /  -2.1 °C 14.6 °F /  -9.7 °C 30.15in /  1020.9hPa WSW 7.0mph /  11.3km/h 14.0mph /  22.5km/h 56% 0.02in /  0.51mm
12:14 28.4 °F /  -2 °C 15.1 °F /  -9.4 °C 30.16in /  1021.2hPa WSW 5.0mph /  8km/h 14.0mph /  22.5km/h 57% 0.02in /  0.51mm
12:19 28.6 °F /  -1.9 °C 15.3 °F /  -9.3 °C 30.16in /  1021.2hPa West 8.0mph /  12.9km/h 14.0mph /  22.5km/h 57% 0.02in /  0.51mm
12:24 28.8 °F /  -1.8 °C 14.2 °F /  -9.9 °C 30.15in /  1020.9hPa West 7.0mph /  11.3km/h 14.0mph /  22.5km/h 54% 0.01in /  0.25mm
12:29 28.6 °F /  -1.9 °C 14.0 °F /  -10 °C 30.15in /  1020.9hPa West 7.0mph /  11.3km/h 18.0mph /  29km/h 54% 0.02in /  0.51mm
12:34 28.9 °F /  -1.7 °C 14.7 °F /  -9.6 °C 30.15in /  1020.9hPa West 8.0mph /  12.9km/h 18.0mph /  29km/h 55% 0.02in /  0.51mm
12:39 28.8 °F /  -1.8 °C 14.2 °F /  -9.9 °C 30.15in /  1020.9hPa West 8.0mph /  12.9km/h 17.0mph /  27.4km/h 54% 0.02in /  0.51mm
12:44 29.5 °F /  -1.4 °C 15.3 °F /  -9.3 °C 30.15in /  1020.9hPa West 8.0mph /  12.9km/h 17.0mph /  27.4km/h 55% 0.02in /  0.51mm
12:49 29.3 °F /  -1.5 °C 14.3 °F /  -9.8 °C 30.15in /  1020.9hPa West 8.0mph /  12.9km/h 20.0mph /  32.2km/h 53% 0.02in /  0.51mm
12:54 29.4 °F /  -1.4 °C 14.8 °F /  -9.6 °C 30.15in /  1020.9hPa WSW 15.0mph /  24.1km/h 16.0mph /  25.7km/h 54% 0.03in /  0.76mm
12:59 29.7 °F /  -1.3 °C 15.5 °F /  -9.2 °C 30.15in /  1020.9hPa NW 5.0mph /  8km/h 15.0mph /  24.1km/h 55% 0.02in /  0.51mm
13:04 29.6 °F /  -1.3 °C 14.5 °F /  -9.7 °C 30.14in /  1020.5hPa West 7.0mph /  11.3km/h 14.0mph /  22.5km/h 53% 0.02in /  0.51mm
13:09 29.8 °F /  -1.2 °C 14.7 °F /  -9.6 °C 30.15in /  1020.9hPa SW 7.0mph /  11.3km/h 20.0mph /  32.2km/h 53% 0.03in /  0.76mm
13:14 30.2 °F /  -1 °C 15.5 °F /  -9.2 °C 30.15in /  1020.9hPa West 11.0mph /  17.7km/h 15.0mph /  24.1km/h 54% 0.03in /  0.76mm
13:19 30.6 °F /  -0.8 °C 15.9 °F /  -8.9 °C 30.14in /  1020.5hPa WSW 9.0mph /  14.5km/h 15.0mph /  24.1km/h 54% 0.03in /  0.76mm
13:24 30.5 °F /  -0.8 °C 15.4 °F /  -9.2 °C 30.14in /  1020.5hPa West 8.0mph /  12.9km/h 15.0mph /  24.1km/h 53% 0.03in /  0.76mm
13:29 30.6 °F /  -0.8 °C 14.6 °F /  -9.7 °C 30.14in /  1020.5hPa West 8.0mph /  12.9km/h 15.0mph /  24.1km/h 51% 0.03in /  0.76mm
13:34 31.0 °F /  -0.6 °C 15.4 °F /  -9.2 °C 30.14in /  1020.5hPa West 8.0mph /  12.9km/h 17.0mph /  27.4km/h 52% 0.03in /  0.76mm
13:39 31.0 °F /  -0.6 °C 15.4 °F /  -9.2 °C 30.15in /  1020.9hPa West 9.0mph /  14.5km/h 19.0mph /  30.6km/h 52% 0.04in /  1.02mm
13:44 31.4 °F /  -0.3 °C 16.2 °F /  -8.8 °C 30.15in /  1020.9hPa West 9.0mph /  14.5km/h 19.0mph /  30.6km/h 53% 0.04in /  1.02mm
13:49 31.7 °F /  -0.2 °C 16.5 °F /  -8.6 °C 30.14in /  1020.5hPa West 8.0mph /  12.9km/h 18.0mph /  29km/h 53% 0.04in /  1.02mm
13:54 31.7 °F /  -0.2 °C 16.1 °F /  -8.8 °C 30.14in /  1020.5hPa WNW 8.0mph /  12.9km/h 14.0mph /  22.5km/h 52% 0.04in /  1.02mm
13:59 31.6 °F /  -0.2 °C 15.1 °F /  -9.4 °C 30.14in /  1020.5hPa WNW 11.0mph /  17.7km/h 19.0mph /  30.6km/h 50% 0.05in /  1.27mm
14:04 31.3 °F /  -0.4 °C 14.8 °F /  -9.6 °C 30.14in /  1020.5hPa West 10.0mph /  16.1km/h 18.0mph /  29km/h 50% 0.05in /  1.27mm
14:09 31.8 °F /  -0.1 °C 17.0 °F /  -8.3 °C 30.14in /  1020.5hPa West 12.0mph /  19.3km/h 15.0mph /  24.1km/h 54% 0.05in /  1.27mm
14:14 31.8 °F /  -0.1 °C 15.3 °F /  -9.3 °C 30.14in /  1020.5hPa West 8.0mph /  12.9km/h 19.0mph /  30.6km/h 50% 0.05in /  1.27mm
14:19 31.9 °F /  -0.1 °C 15.3 °F /  -9.3 °C 30.14in /  1020.5hPa WSW 3.0mph /  4.8km/h 17.0mph /  27.4km/h 50% 0.06in /  1.52mm
14:24 32.2 °F /  0.1 °C 16.1 °F /  -8.8 °C 30.14in /  1020.5hPa West 15.0mph /  24.1km/h 20.0mph /  32.2km/h 51% 0.06in /  1.52mm
14:29 32.2 °F /  0.1 °C 16.1 °F /  -8.8 °C 30.14in /  1020.5hPa West 9.0mph /  14.5km/h 20.0mph /  32.2km/h 51% 0.05in /  1.27mm
14:34 32.4 °F /  0.2 °C 15.8 °F /  -9 °C 30.14in /  1020.5hPa WNW 10.0mph /  16.1km/h 21.0mph /  33.8km/h 50% 0.06in /  1.52mm
14:39 32.4 °F /  0.2 °C 15.8 °F /  -9 °C 30.14in /  1020.5hPa West 10.0mph /  16.1km/h 21.0mph /  33.8km/h 50% 0.05in /  1.27mm
14:44 32.5 °F /  0.3 °C 16.4 °F /  -8.7 °C 30.14in /  1020.5hPa West 9.0mph /  14.5km/h 18.0mph /  29km/h 51% 0.05in /  1.27mm
14:49 33.0 °F /  0.6 °C 16.4 °F /  -8.7 °C 30.14in /  1020.5hPa West 8.0mph /  12.9km/h 16.0mph /  25.7km/h 50% 0.05in /  1.27mm
14:54 32.2 °F /  0.1 °C 15.2 °F /  -9.3 °C 30.14in /  1020.5hPa West 9.0mph /  14.5km/h 18.0mph /  29km/h 49% 0.05in /  1.27mm
14:59 32.4 °F /  0.2 °C 16.3 °F /  -8.7 °C 30.14in /  1020.5hPa SW 8.0mph /  12.9km/h 21.0mph /  33.8km/h 51% 0.04in /  1.02mm
15:04 32.7 °F /  0.4 °C 15.1 °F /  -9.4 °C 30.13in /  1020.2hPa West 10.0mph /  16.1km/h 21.0mph /  33.8km/h 48% 0.04in /  1.02mm
15:09 33.2 °F /  0.7 °C 16.5 °F /  -8.6 °C 30.14in /  1020.5hPa WSW 8.0mph /  12.9km/h 21.0mph /  33.8km/h 50% 0.04in /  1.02mm
15:14 33.4 °F /  0.8 °C 16.3 °F /  -8.7 °C 30.14in /  1020.5hPa NW 8.0mph /  12.9km/h 17.0mph /  27.4km/h 49% 0.04in /  1.02mm
15:19 33.2 °F /  0.7 °C 16.1 °F /  -8.8 °C 30.14in /  1020.5hPa WNW 8.0mph /  12.9km/h 17.0mph /  27.4km/h 49% 0.03in /  0.76mm
15:24 33.4 °F /  0.8 °C 16.3 °F /  -8.7 °C 30.14in /  1020.5hPa West 14.0mph /  22.5km/h 19.0mph /  30.6km/h 49% 0.03in /  0.76mm
15:29 33.1 °F /  0.6 °C 16.0 °F /  -8.9 °C 30.14in /  1020.5hPa West 6.0mph /  9.7km/h 18.0mph /  29km/h 49% 0.04in /  1.02mm
15:34 33.5 °F /  0.8 °C 16.8 °F /  -8.4 °C 30.14in /  1020.5hPa West 10.0mph /  16.1km/h 18.0mph /  29km/h 50% 0.03in /  0.76mm
15:39 33.6 °F /  0.9 °C 16.0 °F /  -8.9 °C 30.14in /  1020.5hPa West 10.0mph /  16.1km/h 17.0mph /  27.4km/h 48% 0.03in /  0.76mm
15:44 34.1 °F /  1.2 °C 16.4 °F /  -8.7 °C 30.14in /  1020.5hPa West 9.0mph /  14.5km/h 17.0mph /  27.4km/h 48% 0.03in /  0.76mm
15:49 34.1 °F /  1.2 °C 17.8 °F /  -7.9 °C 30.14in /  1020.5hPa WSW 7.0mph /  11.3km/h 19.0mph /  30.6km/h 51% 0.04in /  1.02mm
15:54 34.3 °F /  1.3 °C 16.6 °F /  -8.6 °C 30.14in /  1020.5hPa SW 5.0mph /  8km/h 13.0mph /  20.9km/h 48% 0.03in /  0.76mm
15:59 33.9 °F /  1.1 °C 16.7 °F /  -8.5 °C 30.14in /  1020.5hPa WSW 11.0mph /  17.7km/h 22.0mph /  35.4km/h 49% 0.03in /  0.76mm
16:04 33.8 °F /  1 °C 16.2 °F /  -8.8 °C 30.14in /  1020.5hPa West 14.0mph /  22.5km/h 19.0mph /  30.6km/h 48% 0.03in /  0.76mm
16:09 33.7 °F /  0.9 °C 17.0 °F /  -8.3 °C 30.14in /  1020.5hPa West 10.0mph /  16.1km/h 19.0mph /  30.6km/h 50% 0.02in /  0.51mm
16:14 33.8 °F /  1 °C 16.6 °F /  -8.6 °C 30.14in /  1020.5hPa West 10.0mph /  16.1km/h 19.0mph /  30.6km/h 49% 0.03in /  0.76mm
16:19 34.0 °F /  1.1 °C 16.8 °F /  -8.4 °C 30.14in /  1020.5hPa West 9.0mph /  14.5km/h 19.0mph /  30.6km/h 49% 0.03in /  0.76mm
16:24 33.9 °F /  1.1 °C 16.7 °F /  -8.5 °C 30.14in /  1020.5hPa WSW 9.0mph /  14.5km/h 18.0mph /  29km/h 49% 0.03in /  0.76mm
16:29 34.4 °F /  1.3 °C 17.2 °F /  -8.2 °C 30.14in /  1020.5hPa West 8.0mph /  12.9km/h 18.0mph /  29km/h 49% 0.02in /  0.51mm
16:34 33.8 °F /  1 °C 17.1 °F /  -8.3 °C 30.14in /  1020.5hPa West 7.0mph /  11.3km/h 17.0mph /  27.4km/h 50% 0.02in /  0.51mm
16:39 33.7 °F /  0.9 °C 17.5 °F /  -8.1 °C 30.14in /  1020.5hPa West 9.0mph /  14.5km/h 17.0mph /  27.4km/h 51% 0.02in /  0.51mm
16:44 33.5 °F /  0.8 °C 17.7 °F /  -7.9 °C 30.14in /  1020.5hPa West 12.0mph /  19.3km/h 16.0mph /  25.7km/h 52% 0.02in /  0.51mm
16:49 33.6 °F /  0.9 °C 17.4 °F /  -8.1 °C 30.14in /  1020.5hPa WNW 5.0mph /  8km/h 15.0mph /  24.1km/h 51% 0.01in /  0.25mm
16:54 34.2 °F /  1.2 °C 17.9 °F /  -7.8 °C 30.14in /  1020.5hPa West 12.0mph /  19.3km/h 18.0mph /  29km/h 51% 0.02in /  0.51mm
16:59 33.9 °F /  1.1 °C 17.7 °F /  -7.9 °C 30.14in /  1020.5hPa SSW 7.0mph /  11.3km/h 17.0mph /  27.4km/h 51% 0.02in /  0.51mm
17:04 34.0 °F /  1.1 °C 17.3 °F /  -8.2 °C 30.14in /  1020.5hPa West 13.0mph /  20.9km/h 20.0mph /  32.2km/h 50% 0.02in /  0.51mm
17:09 33.9 °F /  1.1 °C 16.7 °F /  -8.5 °C 30.14in /  1020.5hPa West 7.0mph /  11.3km/h 18.0mph /  29km/h 49% 0.02in /  0.51mm
17:14 34.0 °F /  1.1 °C 17.3 °F /  -8.2 °C 30.14in /  1020.5hPa West 9.0mph /  14.5km/h 18.0mph /  29km/h 50% 0.01in /  0.25mm
17:19 34.1 °F /  1.2 °C 17.4 °F /  -8.1 °C 30.14in /  1020.5hPa West 9.0mph /  14.5km/h 17.0mph /  27.4km/h 50% 0.01in /  0.25mm
17:24 33.9 °F /  1.1 °C 17.7 °F /  -7.9 °C 30.14in /  1020.5hPa WNW 10.0mph /  16.1km/h 18.0mph /  29km/h 51% 0.01in /  0.25mm
17:29 33.7 °F /  0.9 °C 17.5 °F /  -8.1 °C 30.14in /  1020.5hPa WNW 10.0mph /  16.1km/h 20.0mph /  32.2km/h 51% 0.01in /  0.25mm
17:34 33.9 °F /  1.1 °C 17.2 °F /  -8.2 °C 30.14in /  1020.5hPa West 9.0mph /  14.5km/h 20.0mph /  32.2km/h 50% 0.01in /  0.25mm
17:39 33.8 °F /  1 °C 17.1 °F /  -8.3 °C 30.14in /  1020.5hPa WNW 6.0mph /  9.7km/h 18.0mph /  29km/h 50% 0.01in /  0.25mm
17:44 33.8 °F /  1 °C 17.1 °F /  -8.3 °C 30.14in /  1020.5hPa West 9.0mph /  14.5km/h 18.0mph /  29km/h 50% 0.01in /  0.25mm
17:49 33.8 °F /  1 °C 17.1 °F /  -8.3 °C 30.14in /  1020.5hPa WSW 11.0mph /  17.7km/h 18.0mph /  29km/h 50% 0.01in /  0.25mm
17:54 33.4 °F /  0.8 °C 17.2 °F /  -8.2 °C 30.15in /  1020.9hPa WNW 13.0mph /  20.9km/h 18.0mph /  29km/h 51% 0.00in /  0mm
17:59 33.3 °F /  0.7 °C 17.1 °F /  -8.3 °C 30.15in /  1020.9hPa WSW 6.0mph /  9.7km/h 14.0mph /  22.5km/h 51% 0.00in /  0mm
18:04 32.9 °F /  0.5 °C 17.2 °F /  -8.2 °C 30.15in /  1020.9hPa WNW 9.0mph /  14.5km/h 21.0mph /  33.8km/h 52% 0.00in /  0mm
18:09 32.7 °F /  0.4 °C 17.0 °F /  -8.3 °C 30.15in /  1020.9hPa West 7.0mph /  11.3km/h 17.0mph /  27.4km/h 52% 0.00in /  0mm
18:14 32.7 °F /  0.4 °C 17.4 °F /  -8.1 °C 30.15in /  1020.9hPa West 9.0mph /  14.5km/h 17.0mph /  27.4km/h 53% 0.00in /  0mm
18:19 32.6 °F /  0.3 °C 17.3 °F /  -8.2 °C 30.15in /  1020.9hPa West 8.0mph /  12.9km/h 17.0mph /  27.4km/h 53% 0.00in /  0mm
18:24 32.4 °F /  0.2 °C 17.2 °F /  -8.2 °C 30.16in /  1021.2hPa WNW 9.0mph /  14.5km/h 22.0mph /  35.4km/h 53% 0.00in /  0mm
18:29 32.4 °F /  0.2 °C 17.2 °F /  -8.2 °C 30.16in /  1021.2hPa West 10.0mph /  16.1km/h 22.0mph /  35.4km/h 53% 0.00in /  0mm
18:34 32.2 °F /  0.1 °C 17.0 °F /  -8.3 °C 30.16in /  1021.2hPa West 9.0mph /  14.5km/h 20.0mph /  32.2km/h 53% 0.00in /  0mm
18:39 32.2 °F /  0.1 °C 17.4 °F /  -8.1 °C 30.16in /  1021.2hPa West 8.0mph /  12.9km/h 16.0mph /  25.7km/h 54% 0.00in /  0mm
18:44 32.1 °F /  0.1 °C 16.9 °F /  -8.4 °C 30.16in /  1021.2hPa SW 10.0mph /  16.1km/h 16.0mph /  25.7km/h 53% 0.00in /  0mm
18:49 31.8 °F /  -0.1 °C 17.0 °F /  -8.3 °C 30.16in /  1021.2hPa West 8.0mph /  12.9km/h 18.0mph /  29km/h 54% 0.00in /  0mm
18:54 31.7 °F /  -0.2 °C 16.9 °F /  -8.4 °C 30.17in /  1021.6hPa West 9.0mph /  14.5km/h 16.0mph /  25.7km/h 54% 0.00in /  0mm
18:59 31.7 °F /  -0.2 °C 16.5 °F /  -8.6 °C 30.17in /  1021.6hPa WNW 15.0mph /  24.1km/h 18.0mph /  29km/h 53% 0.00in /  0mm
19:04 31.4 °F /  -0.3 °C 16.7 °F /  -8.5 °C 30.17in /  1021.6hPa West 9.0mph /  14.5km/h 18.0mph /  29km/h 54% 0.00in /  0mm
19:09 31.4 °F /  -0.3 °C 16.2 °F /  -8.8 °C 30.17in /  1021.6hPa South 5.0mph /  8km/h 16.0mph /  25.7km/h 53% 0.00in /  0mm
19:14 31.2 °F /  -0.4 °C 16.5 °F /  -8.6 °C 30.17in /  1021.6hPa WNW 7.0mph /  11.3km/h 18.0mph /  29km/h 54% 0.00in /  0mm
19:19 30.9 °F /  -0.6 °C 16.6 °F /  -8.6 °C 30.18in /  1021.9hPa West 4.0mph /  6.4km/h 10.0mph /  16.1km/h 55% 0.00in /  0mm
19:24 30.8 °F /  -0.7 °C 16.5 °F /  -8.6 °C 30.18in /  1021.9hPa West 6.0mph /  9.7km/h 14.0mph /  22.5km/h 55% 0.00in /  0mm
19:29 30.8 °F /  -0.7 °C 16.5 °F /  -8.6 °C 30.18in /  1021.9hPa West 6.0mph /  9.7km/h 14.0mph /  22.5km/h 55% 0.00in /  0mm
19:34 30.5 °F /  -0.8 °C 16.7 °F /  -8.5 °C 30.18in /  1021.9hPa West 5.0mph /  8km/h 11.0mph /  17.7km/h 56% 0.00in /  0mm
19:39 30.6 °F /  -0.8 °C 16.3 °F /  -8.7 °C 30.19in /  1022.2hPa West 6.0mph /  9.7km/h 15.0mph /  24.1km/h 55% 0.00in /  0mm
19:44 30.5 °F /  -0.8 °C 16.7 °F /  -8.5 °C 30.18in /  1021.9hPa WNW 5.0mph /  8km/h 15.0mph /  24.1km/h 56% 0.00in /  0mm
19:49 30.3 °F /  -0.9 °C 16.5 °F /  -8.6 °C 30.18in /  1021.9hPa West 6.0mph /  9.7km/h 15.0mph /  24.1km/h 56% 0.00in /  0mm
19:54 30.1 °F /  -1.1 °C 16.7 °F /  -8.5 °C 30.19in /  1022.2hPa WNW 7.0mph /  11.3km/h 16.0mph /  25.7km/h 57% 0.00in /  0mm
19:59 30.1 °F /  -1.1 °C 16.7 °F /  -8.5 °C 30.19in /  1022.2hPa West 7.0mph /  11.3km/h 16.0mph /  25.7km/h 57% 0.00in /  0mm
20:04 29.9 °F /  -1.2 °C 16.5 °F /  -8.6 °C 30.19in /  1022.2hPa WNW 7.0mph /  11.3km/h 11.0mph /  17.7km/h 57% 0.00in /  0mm
20:09 29.8 °F /  -1.2 °C 16.4 °F /  -8.7 °C 30.20in /  1022.6hPa West 4.0mph /  6.4km/h 10.0mph /  16.1km/h 57% 0.00in /  0mm
20:14 29.7 °F /  -1.3 °C 16.7 °F /  -8.5 °C 30.20in /  1022.6hPa WSW 2.0mph /  3.2km/h 7.0mph /  11.3km/h 58% 0.00in /  0mm
20:19 29.6 °F /  -1.3 °C 16.6 °F /  -8.6 °C 30.20in /  1022.6hPa WSW 4.0mph /  6.4km/h 10.0mph /  16.1km/h 58% 0.00in /  0mm
20:24 29.4 °F /  -1.4 °C 16.8 °F /  -8.4 °C 30.20in /  1022.6hPa West 5.0mph /  8km/h 16.0mph /  25.7km/h 59% 0.00in /  0mm
20:29 29.5 °F /  -1.4 °C 16.9 °F /  -8.4 °C 30.20in /  1022.6hPa West 6.0mph /  9.7km/h 16.0mph /  25.7km/h 59% 0.00in /  0mm
20:34 29.2 °F /  -1.6 °C 16.6 °F /  -8.6 °C 30.21in /  1022.9hPa West 5.0mph /  8km/h 13.0mph /  20.9km/h 59% 0.00in /  0mm
20:39 29.1 °F /  -1.6 °C 16.5 °F /  -8.6 °C 30.21in /  1022.9hPa West 5.0mph /  8km/h 15.0mph /  24.1km/h 59% 0.00in /  0mm
20:44 29.0 °F /  -1.7 °C 16.4 °F /  -8.7 °C 30.21in /  1022.9hPa West 6.0mph /  9.7km/h 15.0mph /  24.1km/h 59% 0.00in /  0mm
20:49 29.1 °F /  -1.6 °C 16.5 °F /  -8.6 °C 30.22in /  1023.2hPa WSW 8.0mph /  12.9km/h 14.0mph /  22.5km/h 59% 0.00in /  0mm
20:54 29.0 °F /  -1.7 °C 16.8 °F /  -8.4 °C 30.22in /  1023.2hPa West 4.0mph /  6.4km/h 10.0mph /  16.1km/h 60% 0.00in /  0mm
20:59 28.7 °F /  -1.8 °C 16.9 °F /  -8.4 °C 30.22in /  1023.2hPa WSW 5.0mph /  8km/h 14.0mph /  22.5km/h 61% 0.00in /  0mm
21:04 28.7 °F /  -1.8 °C 16.9 °F /  -8.4 °C 30.22in /  1023.2hPa West 6.0mph /  9.7km/h 14.0mph /  22.5km/h 61% 0.00in /  0mm
21:09 28.6 °F /  -1.9 °C 17.2 °F /  -8.2 °C 30.22in /  1023.2hPa WSW 5.0mph /  8km/h 14.0mph /  22.5km/h 62% 0.00in /  0mm
21:14 28.5 °F /  -1.9 °C 17.1 °F /  -8.3 °C 30.22in /  1023.2hPa WSW 3.0mph /  4.8km/h 12.0mph /  19.3km/h 62% 0.00in /  0mm
21:19 28.3 °F /  -2.1 °C 17.3 °F /  -8.2 °C 30.22in /  1023.2hPa WSW 2.0mph /  3.2km/h 9.0mph /  14.5km/h 63% 0.00in /  0mm
21:24 28.2 °F /  -2.1 °C 17.2 °F /  -8.2 °C 30.22in /  1023.2hPa WSW 6.0mph /  9.7km/h 9.0mph /  14.5km/h 63% 0.00in /  0mm
21:29 28.2 °F /  -2.1 °C 17.2 °F /  -8.2 °C 30.23in /  1023.6hPa WSW 7.0mph /  11.3km/h 11.0mph /  17.7km/h 63% 0.00in /  0mm
21:34 28.1 °F /  -2.2 °C 17.5 °F /  -8.1 °C 30.23in /  1023.6hPa WSW 5.0mph /  8km/h 11.0mph /  17.7km/h 64% 0.00in /  0mm
21:39 28.0 °F /  -2.2 °C 17.4 °F /  -8.1 °C 30.23in /  1023.6hPa WSW 5.0mph /  8km/h 10.0mph /  16.1km/h 64% 0.00in /  0mm
21:44 27.8 °F /  -2.3 °C 17.2 °F /  -8.2 °C 30.23in /  1023.6hPa WSW 5.0mph /  8km/h 10.0mph /  16.1km/h 64% 0.00in /  0mm
21:49 27.6 °F /  -2.4 °C 17.4 °F /  -8.1 °C 30.23in /  1023.6hPa WSW 3.0mph /  4.8km/h 10.0mph /  16.1km/h 65% 0.00in /  0mm
21:54 27.5 °F /  -2.5 °C 17.3 °F /  -8.2 °C 30.23in /  1023.6hPa West 2.0mph /  3.2km/h 9.0mph /  14.5km/h 65% 0.00in /  0mm
21:59 27.3 °F /  -2.6 °C 17.1 °F /  -8.3 °C 30.23in /  1023.6hPa West 6.0mph /  9.7km/h 8.0mph /  12.9km/h 65% 0.00in /  0mm
22:04 27.4 °F /  -2.6 °C 17.2 °F /  -8.2 °C 30.23in /  1023.6hPa West 4.0mph /  6.4km/h 8.0mph /  12.9km/h 65% 0.00in /  0mm
22:09 27.4 °F /  -2.6 °C 17.2 °F /  -8.2 °C 30.23in /  1023.6hPa WSW 5.0mph /  8km/h 9.0mph /  14.5km/h 65% 0.00in /  0mm
22:14 27.3 °F /  -2.6 °C 16.7 °F /  -8.5 °C 30.23in /  1023.6hPa WSW 5.0mph /  8km/h 10.0mph /  16.1km/h 64% 0.00in /  0mm
22:19 27.2 °F /  -2.7 °C 16.6 °F /  -8.6 °C 30.23in /  1023.6hPa WSW 5.0mph /  8km/h 10.0mph /  16.1km/h 64% 0.00in /  0mm
22:24 27.2 °F /  -2.7 °C 16.6 °F /  -8.6 °C 30.24in /  1023.9hPa SW 4.0mph /  6.4km/h 10.0mph /  16.1km/h 64% 0.00in /  0mm
22:29 27.1 °F /  -2.7 °C 16.5 °F /  -8.6 °C 30.23in /  1023.6hPa WSW 4.0mph /  6.4km/h 9.0mph /  14.5km/h 64% 0.00in /  0mm
22:34 27.0 °F /  -2.8 °C 16.1 °F /  -8.8 °C 30.24in /  1023.9hPa WSW 4.0mph /  6.4km/h 8.0mph /  12.9km/h 63% 0.00in /  0mm
22:39 27.2 °F /  -2.7 °C 16.3 °F /  -8.7 °C 30.24in /  1023.9hPa WSW 5.0mph /  8km/h 10.0mph /  16.1km/h 63% 0.00in /  0mm
22:44 27.0 °F /  -2.8 °C 16.1 °F /  -8.8 °C 30.24in /  1023.9hPa WSW 5.0mph /  8km/h 10.0mph /  16.1km/h 63% 0.00in /  0mm
22:49 27.0 °F /  -2.8 °C 16.1 °F /  -8.8 °C 30.24in /  1023.9hPa West 3.0mph /  4.8km/h 10.0mph /  16.1km/h 63% 0.00in /  0mm
22:54 26.9 °F /  -2.8 °C 16.0 °F /  -8.9 °C 30.24in /  1023.9hPa SW 4.0mph /  6.4km/h 8.0mph /  12.9km/h 63% 0.00in /  0mm
22:59 26.9 °F /  -2.8 °C 16.0 °F /  -8.9 °C 30.24in /  1023.9hPa West 4.0mph /  6.4km/h 12.0mph /  19.3km/h 63% 0.00in /  0mm
23:04 26.9 °F /  -2.8 °C 16.0 °F /  -8.9 °C 30.24in /  1023.9hPa West 4.0mph /  6.4km/h 12.0mph /  19.3km/h 63% 0.00in /  0mm
23:09 26.6 °F /  -3 °C 15.7 °F /  -9.1 °C 30.24in /  1023.9hPa West 4.0mph /  6.4km/h 10.0mph /  16.1km/h 63% 0.00in /  0mm
23:14 26.5 °F /  -3.1 °C 15.6 °F /  -9.1 °C 30.24in /  1023.9hPa West 4.0mph /  6.4km/h 11.0mph /  17.7km/h 63% 0.00in /  0mm
23:19 26.5 °F /  -3.1 °C 16.0 °F /  -8.9 °C 30.24in /  1023.9hPa WSW 2.0mph /  3.2km/h 10.0mph /  16.1km/h 64% 0.00in /  0mm
23:24 26.4 °F /  -3.1 °C 15.9 °F /  -8.9 °C 30.24in /  1023.9hPa WSW 6.0mph /  9.7km/h 9.0mph /  14.5km/h 64% 0.00in /  0mm
23:29 26.3 °F /  -3.2 °C 15.8 °F /  -9 °C 30.24in /  1023.9hPa West 2.0mph /  3.2km/h 8.0mph /  12.9km/h 64% 0.00in /  0mm
23:34 26.1 °F /  -3.3 °C 15.6 °F /  -9.1 °C 30.24in /  1023.9hPa West 3.0mph /  4.8km/h 8.0mph /  12.9km/h 64% 0.00in /  0mm
23:39 26.0 °F /  -3.3 °C 15.5 °F /  -9.2 °C 30.24in /  1023.9hPa West 3.0mph /  4.8km/h 8.0mph /  12.9km/h 64% 0.00in /  0mm
23:44 25.8 °F /  -3.4 °C 15.6 °F /  -9.1 °C 30.24in /  1023.9hPa WSW 3.0mph /  4.8km/h 6.0mph /  9.7km/h 65% 0.00in /  0mm
23:49 25.8 °F /  -3.4 °C 15.6 °F /  -9.1 °C 30.24in /  1023.9hPa West 2.0mph /  3.2km/h 6.0mph /  9.7km/h 65% 0.00in /  0mm
23:54 25.7 °F /  -3.5 °C 15.9 °F /  -8.9 °C 30.24in /  1023.9hPa WSW 2.0mph /  3.2km/h 6.0mph /  9.7km/h 66% 0.00in /  0mm
23:59 25.8 °F /  -3.4 °C 15.6 °F /  -9.1 °C 30.24in /  1023.9hPa WSW 1.0mph /  1.6km/h 5.0mph /  8km/h 65% 0.00in /  0mm
Buffalo, New York, USA
Compliments of Weather Underground - 2.5 mb